createdAt,value
2023-02-27T00:01:04.390Z,102578.59
2023-02-27T00:03:31.998Z,102574.94
2023-02-27T00:06:00.933Z,102569.59
2023-02-27T00:08:28.493Z,102568.16
2023-02-27T00:10:56.137Z,102570.03
2023-02-27T00:13:23.635Z,102572.75
2023-02-27T00:15:51.711Z,102569.41
2023-02-27T00:18:19.309Z,102569.94
2023-02-27T00:20:46.829Z,102577.22
2023-02-27T00:23:16.304Z,102574.81
2023-02-27T00:25:43.921Z,102573.22
2023-02-27T00:28:11.637Z,102568.81
2023-02-27T00:30:40.073Z,102571.31
2023-02-27T00:33:08.969Z,102580.53
2023-02-27T00:35:36.808Z,102570.66
2023-02-27T00:38:04.866Z,102567.00
2023-02-27T00:40:35.744Z,102571.53
2023-02-27T00:43:03.400Z,102564.88
2023-02-27T00:45:31.131Z,102565.81
2023-02-27T00:47:58.857Z,102567.50
2023-02-27T00:50:26.412Z,102570.88
2023-02-27T00:52:53.922Z,102573.09
2023-02-27T00:55:22.212Z,102573.88
2023-02-27T00:57:51.159Z,102566.72
2023-02-27T01:00:19.457Z,102569.03
2023-02-27T01:02:47.078Z,102573.66
2023-02-27T01:05:15.135Z,102571.97
2023-02-27T01:07:42.782Z,102573.75
2023-02-27T01:10:12.598Z,102569.88
2023-02-27T01:12:40.530Z,102572.97
2023-02-27T01:15:11.191Z,102572.44
2023-02-27T01:17:39.070Z,102578.16
2023-02-27T01:20:09.241Z,102571.25
2023-02-27T01:22:36.891Z,102572.56
2023-02-27T01:25:04.985Z,102569.78
2023-02-27T01:27:32.956Z,102571.31
2023-02-27T01:30:00.654Z,102572.03
2023-02-27T01:32:29.691Z,102563.19
2023-02-27T01:34:57.276Z,102568.28
2023-02-27T01:37:26.958Z,102564.97
2023-02-27T01:39:54.517Z,102562.91
2023-02-27T01:42:24.614Z,102564.53
2023-02-27T01:45:25.169Z,102563.78
2023-02-27T01:47:56.624Z,102565.19
2023-02-27T01:50:24.818Z,102561.03
2023-02-27T01:52:57.374Z,102567.44
2023-02-27T01:55:27.025Z,102572.69
2023-02-27T01:57:55.628Z,102565.00
2023-02-27T02:00:23.939Z,102573.25
2023-02-27T02:03:01.770Z,102575.59
2023-02-27T02:05:31.202Z,102578.84
2023-02-27T02:08:00.373Z,102576.16
2023-02-27T02:10:29.086Z,102579.63
2023-02-27T02:12:57.199Z,102576.59
2023-02-27T02:15:33.477Z,102581.75
2023-02-27T02:18:11.194Z,102571.53
2023-02-27T02:21:12.252Z,102577.69
2023-02-27T02:24:21.014Z,102585.13
2023-02-27T02:26:59.034Z,102592.44
2023-02-27T02:30:22.582Z,102591.63
2023-02-27T02:33:20.301Z,102585.44
2023-02-27T02:36:28.187Z,102580.75
2023-02-27T02:39:10.733Z,102586.56
2023-02-27T02:41:54.215Z,102592.91
2023-02-27T02:44:30.811Z,102581.69
2023-02-27T02:47:06.485Z,102588.63
2023-02-27T02:49:44.467Z,102582.72
2023-02-27T02:52:20.511Z,102587.28
2023-02-27T02:54:57.166Z,102587.47
2023-02-27T02:57:31.210Z,102582.72
2023-02-27T03:00:05.965Z,102597.13
2023-02-27T03:02:40.136Z,102589.91
2023-02-27T03:05:10.975Z,102583.50
2023-02-27T03:07:44.049Z,102591.34
2023-02-27T03:10:17.644Z,102589.00
2023-02-27T03:12:50.398Z,102588.06
2023-02-27T03:15:20.897Z,102596.94
2023-02-27T03:17:52.568Z,102596.41
2023-02-27T03:20:24.909Z,102598.50
2023-02-27T03:22:57.830Z,102590.63
2023-02-27T03:25:29.599Z,102589.78
2023-02-27T03:28:02.242Z,102601.13
2023-02-27T03:30:34.094Z,102591.91
2023-02-27T03:33:08.297Z,102597.81
2023-02-27T03:35:43.090Z,102600.28
2023-02-27T03:38:20.131Z,102596.16
2023-02-27T03:41:01.794Z,102598.44
2023-02-27T03:43:46.545Z,102611.00
2023-02-27T03:46:17.680Z,102602.56
2023-02-27T03:48:46.451Z,102610.69
2023-02-27T03:51:16.867Z,102608.16
2023-02-27T03:53:50.626Z,102616.78
2023-02-27T03:56:25.794Z,102616.59
2023-02-27T03:58:54.349Z,102619.00
2023-02-27T04:01:22.163Z,102619.13
2023-02-27T04:03:56.552Z,102624.72
2023-02-27T04:07:07.525Z,102632.88
2023-02-27T04:09:48.982Z,102623.22
2023-02-27T04:12:35.899Z,102634.91
2023-02-27T04:15:13.820Z,102637.63
2023-02-27T04:17:53.411Z,102640.31
2023-02-27T04:20:42.746Z,102646.22
2023-02-27T04:23:17.838Z,102647.47
2023-02-27T04:26:01.932Z,102653.31
2023-02-27T04:28:41.571Z,102657.81
2023-02-27T04:31:14.893Z,102654.44
2023-02-27T04:33:49.705Z,102658.16
2023-02-27T04:36:24.545Z,102663.78
2023-02-27T04:38:59.840Z,102659.50
2023-02-27T04:41:31.420Z,102670.31
2023-02-27T04:44:02.980Z,102666.84
2023-02-27T04:46:33.016Z,102662.53
2023-02-27T04:49:05.351Z,102667.19
2023-02-27T04:51:37.478Z,102663.63
2023-02-27T04:54:10.837Z,102675.31
2023-02-27T04:56:42.981Z,102669.53
2023-02-27T04:59:17.367Z,102667.88
2023-02-27T05:01:51.302Z,102665.69
2023-02-27T05:04:22.625Z,102669.84
2023-02-27T05:06:52.367Z,102669.34
2023-02-27T05:09:25.650Z,102672.03
2023-02-27T05:11:58.132Z,102669.34
2023-02-27T05:14:31.389Z,102669.53
2023-02-27T05:17:04.349Z,102682.19
2023-02-27T05:19:33.620Z,102680.41
2023-02-27T05:22:12.097Z,102686.69
2023-02-27T05:24:47.770Z,102687.53
2023-02-27T05:27:25.651Z,102681.59
2023-02-27T05:29:57.639Z,102681.00
2023-02-27T05:32:34.458Z,102677.78
2023-02-27T05:35:09.961Z,102685.38
2023-02-27T05:37:42.410Z,102691.41
2023-02-27T05:40:13.462Z,102687.38
2023-02-27T05:42:44.496Z,102682.94
2023-02-27T05:45:18.679Z,102682.25
2023-02-27T05:47:52.438Z,102687.34
2023-02-27T05:50:24.178Z,102685.31
2023-02-27T05:52:53.687Z,102682.69
2023-02-27T05:55:25.300Z,102690.47
2023-02-27T05:57:58.303Z,102686.41
2023-02-27T06:00:34.370Z,102687.03
2023-02-27T06:03:02.065Z,102685.31
2023-02-27T06:05:30.443Z,102692.91
2023-02-27T06:07:58.060Z,102690.47
2023-02-27T06:10:26.021Z,102692.75
2023-02-27T06:12:53.519Z,102698.78
2023-02-27T06:15:21.104Z,102708.31
2023-02-27T06:17:50.011Z,102704.78
2023-02-27T06:20:17.902Z,102704.59
2023-02-27T06:22:45.450Z,102707.97
2023-02-27T06:25:13.449Z,102708.81
2023-02-27T06:27:40.966Z,102709.31
2023-02-27T06:30:09.727Z,102711.50
2023-02-27T06:32:37.295Z,102716.91
2023-02-27T06:35:07.381Z,102724.63
2023-02-27T06:37:34.941Z,102725.28
2023-02-27T06:40:02.583Z,102723.16
2023-02-27T06:42:30.074Z,102726.25
2023-02-27T06:44:57.622Z,102735.50
2023-02-27T06:47:25.514Z,102737.94
2023-02-27T06:49:53.071Z,102733.25
2023-02-27T06:52:21.970Z,102736.38
2023-02-27T06:54:49.516Z,102742.19
2023-02-27T06:57:17.215Z,102738.47
2023-02-27T06:59:45.343Z,102742.63
2023-02-27T07:02:14.513Z,102735.13
2023-02-27T07:04:43.057Z,102747.53
2023-02-27T07:07:35.891Z,102748.66
2023-02-27T07:10:00.011Z,102753.91
2023-02-27T07:12:27.635Z,102752.69
2023-02-27T07:14:55.116Z,102752.16
2023-02-27T07:17:22.827Z,102758.00
2023-02-27T07:19:50.384Z,102752.25
2023-02-27T07:22:17.977Z,102759.03
2023-02-27T07:24:45.534Z,102756.94
2023-02-27T07:27:14.380Z,102762.88
2023-02-27T07:29:42.216Z,102764.09
2023-02-27T07:32:10.029Z,102764.00
2023-02-27T07:34:37.616Z,102762.66
2023-02-27T07:37:05.186Z,102757.66
2023-02-27T07:39:32.959Z,102752.97
2023-02-27T07:42:00.524Z,102762.34
2023-02-27T07:44:29.475Z,102759.69
2023-02-27T07:46:57.040Z,102765.50
2023-02-27T07:49:24.606Z,102769.22
2023-02-27T07:51:52.296Z,102767.78
2023-02-27T07:54:20.000Z,102769.09
2023-02-27T07:56:47.648Z,102767.72
2023-02-27T07:59:15.160Z,102769.88
2023-02-27T08:01:43.990Z,102765.41
2023-02-27T08:04:11.558Z,102760.56
2023-02-27T08:06:39.735Z,102765.31
2023-02-27T08:09:07.789Z,102759.09
2023-02-27T08:11:35.312Z,102760.19
2023-02-27T08:14:03.388Z,102759.34
2023-02-27T08:16:32.119Z,102762.50
2023-02-27T08:19:01.957Z,102766.22
2023-02-27T08:21:30.525Z,102763.66
2023-02-27T08:23:58.340Z,102763.97
2023-02-27T08:26:26.554Z,102757.94
2023-02-27T08:28:54.372Z,102756.56
2023-02-27T08:31:21.948Z,102753.91
2023-02-27T08:33:55.289Z,102768.13
2023-02-27T08:36:27.174Z,102765.56
2023-02-27T08:38:54.850Z,102756.63
2023-02-27T08:41:23.091Z,102750.47
2023-02-27T08:43:50.777Z,102756.84
2023-02-27T08:46:18.371Z,102757.44
2023-02-27T08:48:45.903Z,102758.88
2023-02-27T08:51:13.526Z,102765.03
2023-02-27T08:53:42.510Z,102763.81
2023-02-27T08:56:10.470Z,102767.94
2023-02-27T08:58:38.039Z,102767.00
2023-02-27T09:01:05.804Z,102770.84
2023-02-27T09:03:33.357Z,102777.22
2023-02-27T09:06:01.043Z,102782.16
2023-02-27T09:08:28.589Z,102782.41
2023-02-27T09:10:59.048Z,102779.66
2023-02-27T09:13:27.174Z,102777.84
2023-02-27T09:15:54.994Z,102775.44
2023-02-27T09:18:22.977Z,102780.63
2023-02-27T09:20:51.972Z,102777.09
2023-02-27T09:23:20.539Z,102780.72
2023-02-27T09:25:48.477Z,102785.63
2023-02-27T09:28:17.479Z,102781.78
2023-02-27T09:30:45.018Z,102773.69
2023-02-27T09:33:12.560Z,102780.53
2023-02-27T09:35:40.217Z,102788.72
2023-02-27T09:38:07.804Z,102794.97
2023-02-27T09:40:41.520Z,102787.63
2023-02-27T09:43:15.516Z,102787.09
2023-02-27T09:45:47.953Z,102793.84
2023-02-27T09:48:25.379Z,102785.00
2023-02-27T09:50:53.409Z,102786.28
2023-02-27T09:53:27.320Z,102784.75
2023-02-27T09:55:58.396Z,102779.06
2023-02-27T09:58:44.468Z,102774.88
2023-02-27T10:01:20.102Z,102774.88
2023-02-27T10:04:13.852Z,102773.53
2023-02-27T10:06:45.308Z,102786.47
2023-02-27T10:09:25.840Z,102770.81
2023-02-27T10:12:07.327Z,102777.53
2023-02-27T10:14:43.106Z,102775.59
2023-02-27T10:17:20.214Z,102773.84
2023-02-27T10:19:49.377Z,102776.81
2023-02-27T10:22:24.470Z,102781.59
2023-02-27T10:24:55.735Z,102786.91
2023-02-27T10:27:24.257Z,102782.28
2023-02-27T10:29:54.196Z,102787.06
2023-02-27T10:32:26.704Z,102788.09
2023-02-27T10:35:01.171Z,102791.19
2023-02-27T10:37:30.279Z,102799.06
2023-02-27T10:40:00.388Z,102796.69
2023-02-27T10:42:33.016Z,102800.31
2023-02-27T10:45:00.623Z,102803.22
2023-02-27T10:47:29.714Z,102804.06
2023-02-27T10:50:00.253Z,102803.69
2023-02-27T10:52:28.233Z,102802.41
2023-02-27T10:54:55.871Z,102812.75
2023-02-27T10:57:29.028Z,102797.22
2023-02-27T10:59:59.501Z,102797.22
2023-02-27T11:02:33.158Z,102808.06
2023-02-27T11:05:01.362Z,102807.97
2023-02-27T11:07:32.814Z,102807.97
2023-02-27T11:10:03.516Z,102808.63
2023-02-27T11:12:32.840Z,102811.34
2023-02-27T11:15:02.505Z,102815.66
2023-02-27T11:17:34.001Z,102811.44
2023-02-27T11:20:05.981Z,102809.16
2023-02-27T11:22:34.394Z,102808.63
2023-02-27T11:25:19.717Z,102813.16
2023-02-27T11:27:48.109Z,102809.13
2023-02-27T11:30:27.977Z,102809.53
2023-02-27T11:33:00.005Z,102821.13
2023-02-27T11:35:31.041Z,102817.31
2023-02-27T11:38:01.974Z,102814.59
2023-02-27T11:40:32.944Z,102817.34
2023-02-27T11:43:04.862Z,102820.16
2023-02-27T11:46:04.509Z,102824.75
2023-02-27T11:48:28.891Z,102822.56
2023-02-27T11:51:09.600Z,102817.94
2023-02-27T11:54:05.380Z,102826.34
2023-02-27T11:56:36.425Z,102820.91
2023-02-27T11:59:14.726Z,102823.31
2023-02-27T12:01:50.472Z,102818.84
2023-02-27T12:04:25.265Z,102813.22
2023-02-27T12:06:56.675Z,102816.34
2023-02-27T12:09:39.430Z,102814.97
2023-02-27T12:12:17.342Z,102818.31
2023-02-27T12:14:53.434Z,102816.66
2023-02-27T12:17:26.380Z,102809.66
2023-02-27T12:20:07.698Z,102815.25
2023-02-27T12:22:41.484Z,102811.63
2023-02-27T12:25:16.550Z,102810.81
2023-02-27T12:27:49.830Z,102806.91
2023-02-27T12:30:22.152Z,102803.28
2023-02-27T12:32:55.704Z,102802.44
2023-02-27T12:35:28.907Z,102802.00
2023-02-27T12:37:57.578Z,102799.63
2023-02-27T12:40:31.109Z,102789.44
2023-02-27T12:43:15.636Z,102783.97
2023-02-27T12:46:08.682Z,102793.09
2023-02-27T12:48:53.027Z,102784.81
2023-02-27T12:51:37.830Z,102787.91
2023-02-27T12:54:18.673Z,102775.50
2023-02-27T12:56:56.634Z,102780.16
2023-02-27T12:59:40.971Z,102778.69
2023-02-27T13:02:26.903Z,102770.59
2023-02-27T13:05:04.738Z,102777.84
2023-02-27T13:07:37.802Z,102785.84
2023-02-27T13:10:15.046Z,102777.69
2023-02-27T13:12:47.987Z,102781.38
2023-02-27T13:15:22.949Z,102779.59
2023-02-27T13:17:55.517Z,102778.31
2023-02-27T13:20:33.329Z,102773.56
2023-02-27T13:23:12.465Z,102772.84
2023-02-27T13:25:44.582Z,102768.81
2023-02-27T13:28:17.128Z,102772.75
2023-02-27T13:30:53.697Z,102777.78
2023-02-27T13:33:30.347Z,102775.28
2023-02-27T13:36:07.200Z,102773.88
2023-02-27T13:38:43.049Z,102764.47
2023-02-27T13:41:37.063Z,102767.56
2023-02-27T13:44:46.212Z,102768.84
2023-02-27T13:47:39.600Z,102763.78
2023-02-27T13:50:36.983Z,102767.81
2023-02-27T13:53:11.317Z,102771.09
2023-02-27T13:55:40.308Z,102767.59
2023-02-27T13:58:17.680Z,102761.69
2023-02-27T14:00:56.310Z,102776.13
2023-02-27T14:03:27.487Z,102772.25
2023-02-27T14:05:59.273Z,102776.31
2023-02-27T14:08:29.336Z,102776.16
2023-02-27T14:11:02.648Z,102783.88
2023-02-27T14:13:58.828Z,102786.72
2023-02-27T14:16:54.422Z,102795.72
2023-02-27T14:19:51.221Z,102785.09
2023-02-27T14:22:37.697Z,102793.91
2023-02-27T14:25:19.326Z,102797.13
2023-02-27T14:27:56.875Z,102804.72
2023-02-27T14:30:30.195Z,102796.00
2023-02-27T14:33:03.598Z,102809.16
2023-02-27T14:35:31.608Z,102812.09
2023-02-27T14:38:03.507Z,102806.50
2023-02-27T14:40:37.794Z,102805.09
2023-02-27T14:43:15.894Z,102806.50
2023-02-27T14:45:43.448Z,102815.72
2023-02-27T14:48:11.536Z,102819.22
2023-02-27T14:50:42.000Z,102817.22
2023-02-27T14:53:23.902Z,102811.88
2023-02-27T14:55:55.809Z,102816.38
2023-02-27T14:58:25.582Z,102812.19
2023-02-27T15:01:04.279Z,102819.03
2023-02-27T15:03:37.018Z,102817.72
2023-02-27T15:06:13.400Z,102819.84
2023-02-27T15:08:46.062Z,102818.31
2023-02-27T15:11:16.227Z,102821.91
2023-02-27T15:13:46.191Z,102813.25
2023-02-27T15:16:21.937Z,102817.03
2023-02-27T15:18:50.942Z,102821.09
2023-02-27T15:21:20.724Z,102816.63
2023-02-27T15:23:55.820Z,102819.69
2023-02-27T15:26:23.637Z,102820.81
2023-02-27T15:28:52.670Z,102814.38
2023-02-27T15:31:23.478Z,102821.09
2023-02-27T15:33:52.118Z,102818.84
2023-02-27T15:36:23.555Z,102813.22
2023-02-27T15:39:08.157Z,102820.91
2023-02-27T15:41:36.955Z,102826.22
2023-02-27T15:44:06.319Z,102822.56
2023-02-27T15:46:34.287Z,102822.44
2023-02-27T15:49:02.095Z,102828.81
2023-02-27T15:51:30.019Z,102834.66
2023-02-27T15:54:00.370Z,102837.75
2023-02-27T15:56:32.453Z,102833.81
2023-02-27T15:59:01.648Z,102832.13
2023-02-27T16:01:34.824Z,102831.75
2023-02-27T16:04:06.012Z,102830.78
2023-02-27T16:06:36.799Z,102822.88
2023-02-27T16:09:07.555Z,102828.41
2023-02-27T16:11:37.193Z,102821.66
2023-02-27T16:14:05.852Z,102829.78
2023-02-27T16:16:37.342Z,102824.47
2023-02-27T16:19:16.692Z,102830.91
2023-02-27T16:22:06.582Z,102831.16
2023-02-27T16:24:34.758Z,102831.88
2023-02-27T16:27:02.813Z,102824.47
2023-02-27T16:29:35.606Z,102821.81
2023-02-27T16:32:05.586Z,102819.41
2023-02-27T16:34:45.262Z,102802.16
2023-02-27T16:37:20.406Z,102804.25
2023-02-27T16:39:49.644Z,102795.00
2023-02-27T16:42:17.210Z,102809.50
2023-02-27T16:44:44.706Z,102815.41
2023-02-27T16:47:13.817Z,102803.09
2023-02-27T16:49:44.239Z,102808.66
2023-02-27T16:52:12.149Z,102800.84
2023-02-27T16:54:39.758Z,102814.22
2023-02-27T16:57:07.887Z,102812.53
2023-02-27T16:59:37.283Z,102808.06
2023-02-27T17:02:07.292Z,102807.38
2023-02-27T17:04:36.336Z,102800.50
2023-02-27T17:07:06.481Z,102800.25
2023-02-27T17:09:35.022Z,102803.88
2023-02-27T17:12:02.614Z,102796.88
2023-02-27T17:14:30.117Z,102797.72
2023-02-27T17:16:59.241Z,102793.78
2023-02-27T17:19:26.939Z,102793.50
2023-02-27T17:21:55.789Z,102792.56
2023-02-27T17:24:23.642Z,102803.44
2023-02-27T17:26:52.523Z,102799.66
2023-02-27T17:29:20.732Z,102807.88
2023-02-27T17:31:48.442Z,102806.66
2023-02-27T17:34:16.838Z,102798.38
2023-02-27T17:36:44.712Z,102816.94
2023-02-27T17:39:14.750Z,102806.59
2023-02-27T17:41:44.264Z,102816.34
2023-02-27T17:44:12.628Z,102806.84
2023-02-27T17:46:41.000Z,102813.00
2023-02-27T17:49:09.540Z,102797.69
2023-02-27T17:51:37.028Z,102803.75
2023-02-27T17:54:06.270Z,102803.75
2023-02-27T17:56:36.916Z,102798.03
2023-02-27T17:59:04.750Z,102815.31
2023-02-27T18:01:32.442Z,102809.31
2023-02-27T18:04:00.039Z,102805.03
2023-02-27T18:06:28.598Z,102803.91
2023-02-27T18:08:56.368Z,102815.13
2023-02-27T18:11:24.274Z,102820.81
2023-02-27T18:13:53.150Z,102806.09
2023-02-27T18:16:22.128Z,102819.50
2023-02-27T18:18:49.966Z,102816.22
2023-02-27T18:21:20.924Z,102821.06
2023-02-27T18:23:49.578Z,102822.25
2023-02-27T18:26:28.905Z,102830.47
2023-02-27T18:29:00.950Z,102839.50
2023-02-27T18:31:31.626Z,102838.16
2023-02-27T18:34:00.045Z,102846.59
2023-02-27T18:36:28.291Z,102843.25
2023-02-27T18:38:55.959Z,102822.41
2023-02-27T18:41:23.505Z,102829.00
2023-02-27T18:43:51.230Z,102835.50
2023-02-27T18:46:20.536Z,102834.25
2023-02-27T18:48:48.375Z,102842.72
2023-02-27T18:51:17.544Z,102835.81
2023-02-27T18:53:48.558Z,102840.75
2023-02-27T18:56:18.147Z,102836.41
2023-02-27T18:58:46.186Z,102838.22
2023-02-27T19:01:21.720Z,102846.78
2023-02-27T19:03:49.856Z,102843.38
2023-02-27T19:06:17.739Z,102842.66
2023-02-27T19:08:46.087Z,102846.53
2023-02-27T19:11:22.173Z,102848.47
2023-02-27T19:13:49.671Z,102842.91
2023-02-27T19:16:17.385Z,102852.06
2023-02-27T19:18:46.292Z,102848.31
2023-02-27T19:21:13.866Z,102846.53
2023-02-27T19:23:41.453Z,102846.47
2023-02-27T19:26:09.014Z,102851.13
2023-02-27T19:28:36.575Z,102854.03
2023-02-27T19:31:07.672Z,102859.81
2023-02-27T19:33:35.288Z,102859.13
2023-02-27T19:36:07.544Z,102863.06
2023-02-27T19:38:35.166Z,102856.72
2023-02-27T19:41:03.106Z,102862.91
2023-02-27T19:43:31.267Z,102869.78
2023-02-27T19:45:59.103Z,102867.84
2023-02-27T19:48:27.183Z,102864.00
2023-02-27T19:50:54.695Z,102868.19
2023-02-27T19:53:23.546Z,102863.00
2023-02-27T19:55:58.848Z,102868.06
2023-02-27T19:58:26.348Z,102870.25
2023-02-27T20:00:54.002Z,102875.44
2023-02-27T20:03:21.826Z,102865.91
2023-02-27T20:05:49.631Z,102863.25
2023-02-27T20:08:17.660Z,102866.91
2023-02-27T20:10:54.388Z,102858.94
2023-02-27T20:13:22.433Z,102860.34
2023-02-27T20:15:56.721Z,102865.66
2023-02-27T20:18:24.395Z,102856.00
2023-02-27T20:20:59.893Z,102866.84
2023-02-27T20:23:27.529Z,102864.00
2023-02-27T20:25:56.639Z,102860.09
2023-02-27T20:28:24.442Z,102865.06
2023-02-27T20:30:52.029Z,102863.25
2023-02-27T20:33:19.609Z,102857.69
2023-02-27T20:35:47.156Z,102854.81
2023-02-27T20:38:16.397Z,102857.59
2023-02-27T20:40:43.982Z,102854.13
2023-02-27T20:43:12.822Z,102852.31
2023-02-27T20:45:41.662Z,102859.06
2023-02-27T20:48:09.358Z,102866.66
2023-02-27T20:50:36.866Z,102863.63
2023-02-27T20:53:04.481Z,102864.22
2023-02-27T20:55:32.057Z,102862.28
2023-02-27T20:57:59.651Z,102866.16
2023-02-27T21:00:28.578Z,102873.41
2023-02-27T21:02:56.240Z,102864.00
2023-02-27T21:05:23.786Z,102862.66
2023-02-27T21:07:51.557Z,102867.59
2023-02-27T21:10:19.462Z,102873.63
2023-02-27T21:12:46.990Z,102867.13
2023-02-27T21:15:14.644Z,102865.53
2023-02-27T21:17:43.580Z,102868.69
2023-02-27T21:20:12.291Z,102872.19
2023-02-27T21:22:39.841Z,102867.84
2023-02-27T21:25:07.909Z,102861.94
2023-02-27T21:27:35.508Z,102866.75
2023-02-27T21:30:03.229Z,102862.19
2023-02-27T21:32:30.888Z,102867.59
2023-02-27T21:34:59.773Z,102877.22
2023-02-27T21:37:27.410Z,102872.28
2023-02-27T21:39:57.066Z,102868.31
2023-02-27T21:42:24.646Z,102854.13
2023-02-27T21:44:52.228Z,102854.38
2023-02-27T21:47:20.716Z,102859.19
2023-02-27T21:49:48.257Z,102857.00
2023-02-27T21:52:17.117Z,102861.09
2023-02-27T21:54:44.964Z,102866.16
2023-02-27T21:57:12.617Z,102872.19
2023-02-27T21:59:41.609Z,102870.25
2023-02-27T22:02:13.325Z,102854.97
2023-02-27T22:04:41.029Z,102846.19
2023-02-27T22:07:11.138Z,102849.78
2023-02-27T22:09:40.356Z,102860.75
2023-02-27T22:12:09.005Z,102865.81
2023-02-27T22:14:36.569Z,102863.03
2023-02-27T22:17:04.234Z,102866.97
2023-02-27T22:19:31.788Z,102864.47
2023-02-27T22:21:59.358Z,102869.63
2023-02-27T22:24:26.927Z,102871.19
2023-02-27T22:26:55.842Z,102864.97
2023-02-27T22:29:23.613Z,102862.78
2023-02-27T22:31:51.387Z,102874.72
2023-02-27T22:34:19.407Z,102865.22
2023-02-27T22:36:48.490Z,102858.47
2023-02-27T22:39:16.025Z,102866.16
2023-02-27T22:41:43.891Z,102864.97
2023-02-27T22:44:14.690Z,102871.47
2023-02-27T22:46:44.158Z,102868.81
2023-02-27T22:49:13.930Z,102876.53
2023-02-27T22:51:41.854Z,102877.97
2023-02-27T22:54:10.503Z,102876.78
2023-02-27T22:56:38.471Z,102876.28
2023-02-27T22:59:06.648Z,102873.03
2023-02-27T23:01:37.399Z,102884.94
2023-02-27T23:04:07.125Z,102885.91
2023-02-27T23:06:36.786Z,102887.84
2023-02-27T23:09:07.487Z,102877.63
2023-02-27T23:11:35.334Z,102880.59
2023-02-27T23:14:02.988Z,102890.25
2023-02-27T23:16:30.604Z,102890.00
2023-02-27T23:19:00.697Z,102893.50
2023-02-27T23:21:34.141Z,102899.41
2023-02-27T23:24:04.204Z,102902.41
2023-02-27T23:26:31.739Z,102900.25
2023-02-27T23:28:59.302Z,102894.97
2023-02-27T23:31:27.644Z,102896.97
2023-02-27T23:33:55.439Z,102908.19
2023-02-27T23:36:24.421Z,102903.50
2023-02-27T23:38:51.983Z,102905.66
2023-02-27T23:41:20.822Z,102907.69
2023-02-27T23:44:10.082Z,102903.50
2023-02-27T23:46:38.061Z,102897.72
2023-02-27T23:49:05.681Z,102893.88
2023-02-27T23:51:34.973Z,102900.72
2023-02-27T23:54:03.423Z,102895.91
2023-02-27T23:56:31.808Z,102902.78
2023-02-27T23:59:01.985Z,102901.44
